createdAt,value
2022-12-06T00:01:23.752Z,44.28
2022-12-06T00:03:54.630Z,50.25
2022-12-06T00:06:24.666Z,45.78
2022-12-06T00:08:52.470Z,46.05
2022-12-06T00:11:21.016Z,40.95
2022-12-06T00:13:48.463Z,42.22
2022-12-06T00:16:17.029Z,41.72
2022-12-06T00:18:45.461Z,51.28
2022-12-06T00:21:15.889Z,43.25
2022-12-06T00:23:47.561Z,47.40
2022-12-06T00:26:15.292Z,39.15
2022-12-06T00:28:42.774Z,42.65
2022-12-06T00:31:12.216Z,48.28
2022-12-06T00:33:39.245Z,39.20
2022-12-06T00:36:08.034Z,43.20
2022-12-06T00:38:36.666Z,39.67
2022-12-06T00:41:06.296Z,41.35
2022-12-06T00:43:34.293Z,41.38
2022-12-06T00:46:01.861Z,48.20
2022-12-06T00:48:29.118Z,41.67
2022-12-06T00:50:56.721Z,41.65
2022-12-06T00:53:23.873Z,42.50
2022-12-06T00:55:52.212Z,50.20
2022-12-06T00:58:19.496Z,42.33
2022-12-06T01:00:46.445Z,44.70
2022-12-06T01:03:13.787Z,48.50
2022-12-06T01:05:41.521Z,40.88
2022-12-06T01:08:08.528Z,51.42
2022-12-06T01:10:35.706Z,41.35
2022-12-06T01:13:05.098Z,40.88
2022-12-06T01:15:32.396Z,46.70
2022-12-06T01:17:59.353Z,45.42
2022-12-06T01:20:26.339Z,47.30
2022-12-06T01:22:53.350Z,45.08
2022-12-06T01:25:21.209Z,44.22
2022-12-06T01:27:50.184Z,38.30
2022-12-06T01:30:18.793Z,40.60
2022-12-06T01:32:45.741Z,38.50
2022-12-06T01:35:12.674Z,41.38
2022-12-06T01:37:39.752Z,42.17
2022-12-06T01:40:08.165Z,36.38
2022-12-06T01:42:35.234Z,44.83
2022-12-06T01:45:02.499Z,42.47
2022-12-06T01:47:33.768Z,43.85
2022-12-06T01:50:04.387Z,39.33
2022-12-06T01:52:36.160Z,40.60
2022-12-06T01:55:06.054Z,43.42
2022-12-06T01:57:33.224Z,47.17
2022-12-06T02:00:00.937Z,41.88
2022-12-06T02:02:38.873Z,40.63
2022-12-06T02:05:07.769Z,48.72
2022-12-06T02:07:35.297Z,45.97
2022-12-06T02:10:02.952Z,46.72
2022-12-06T02:12:29.897Z,43.78
2022-12-06T02:14:56.881Z,41.83
2022-12-06T02:17:33.539Z,43.78
2022-12-06T02:20:17.700Z,46.30
2022-12-06T02:23:17.969Z,37.47
2022-12-06T02:26:07.167Z,44.67
2022-12-06T02:29:08.061Z,41.10
2022-12-06T02:31:40.450Z,45.42
2022-12-06T02:34:13.311Z,45.58
2022-12-06T02:36:46.584Z,46.55
2022-12-06T02:39:19.516Z,42.22
2022-12-06T02:42:04.056Z,42.65
2022-12-06T02:44:36.455Z,50.03
2022-12-06T02:47:08.228Z,41.60
2022-12-06T02:49:37.997Z,53.08
2022-12-06T02:52:05.598Z,41.85
2022-12-06T02:54:33.085Z,47.60
2022-12-06T02:57:00.006Z,46.78
2022-12-06T02:59:26.913Z,48.03
2022-12-06T03:01:58.366Z,44.90
2022-12-06T03:04:48.904Z,42.92
2022-12-06T03:07:34.512Z,52.70
2022-12-06T03:12:53.381Z,56.70
2022-12-06T03:15:29.725Z,48.40
2022-12-06T03:18:01.470Z,46.67
2022-12-06T03:20:42.953Z,48.63
2022-12-06T03:23:13.896Z,49.15
2022-12-06T03:25:43.894Z,48.67
2022-12-06T03:28:13.503Z,44.58
2022-12-06T03:30:43.842Z,49.10
2022-12-06T03:33:12.848Z,48.72
2022-12-06T03:35:44.984Z,48.90
2022-12-06T03:38:22.053Z,48.78
2022-12-06T03:40:52.917Z,52.58
2022-12-06T03:43:20.276Z,50.38
2022-12-06T03:45:53.836Z,45.75
2022-12-06T03:48:26.089Z,43.13
2022-12-06T03:50:58.936Z,40.72
2022-12-06T03:53:26.297Z,40.53
2022-12-06T03:55:53.315Z,44.80
2022-12-06T03:58:20.378Z,39.85
2022-12-06T04:00:48.727Z,41.08
2022-12-06T04:03:15.708Z,39.33
2022-12-06T04:05:42.902Z,43.05
2022-12-06T04:08:11.318Z,38.50
2022-12-06T04:10:38.305Z,41.85
2022-12-06T04:13:06.248Z,39.05
2022-12-06T04:15:36.165Z,34.78
2022-12-06T04:18:10.951Z,36.30
2022-12-06T04:21:01.807Z,27.88
2022-12-06T04:23:31.773Z,23.42
2022-12-06T04:25:58.857Z,29.65
2022-12-06T04:28:44.392Z,26.50
2022-12-06T04:31:29.714Z,24.52
2022-12-06T04:34:15.377Z,25.75
2022-12-06T04:37:00.899Z,26.13
2022-12-06T04:39:29.470Z,26.70
2022-12-06T04:42:15.334Z,25.45
2022-12-06T04:44:42.373Z,25.70
2022-12-06T04:47:09.622Z,23.73
2022-12-06T04:49:37.813Z,27.17
2022-12-06T04:52:05.972Z,27.80
2022-12-06T04:54:34.572Z,54.67
2022-12-06T04:57:01.854Z,278.67
2022-12-06T04:59:30.136Z,314.48
2022-12-06T05:01:57.246Z,246.35
2022-12-06T05:04:24.431Z,219.88
2022-12-06T05:06:52.531Z,135.98
2022-12-06T05:09:19.538Z,240.02
2022-12-06T05:11:47.854Z,168.82
2022-12-06T05:14:14.773Z,264.20
2022-12-06T05:16:41.833Z,217.38
2022-12-06T05:19:10.141Z,215.57
2022-12-06T05:21:37.064Z,192.38
2022-12-06T05:24:04.329Z,121.15
2022-12-06T05:26:31.445Z,238.73
2022-12-06T05:28:59.784Z,102.78
2022-12-06T05:31:26.857Z,143.35
2022-12-06T05:33:54.194Z,119.40
2022-12-06T05:36:23.235Z,110.30
2022-12-06T05:38:51.998Z,98.18
2022-12-06T05:41:19.735Z,97.78
2022-12-06T05:43:46.707Z,91.40
2022-12-06T05:46:15.279Z,71.88
2022-12-06T05:48:42.372Z,59.05
2022-12-06T05:51:09.333Z,103.18
2022-12-06T05:53:36.341Z,133.45
2022-12-06T05:56:08.668Z,76.82
2022-12-06T05:58:36.393Z,75.03
2022-12-06T06:01:04.831Z,90.85
2022-12-06T06:03:34.004Z,90.93
2022-12-06T06:06:01.775Z,92.13
2022-12-06T06:08:29.680Z,70.85
2022-12-06T06:10:57.437Z,72.53
2022-12-06T06:13:24.586Z,70.00
2022-12-06T06:15:51.575Z,59.67
2022-12-06T06:18:19.208Z,72.20
2022-12-06T06:20:51.016Z,88.80
2022-12-06T06:23:18.468Z,71.70
2022-12-06T06:25:46.037Z,222.82
2022-12-06T06:28:13.106Z,177.05
2022-12-06T06:30:40.075Z,199.25
2022-12-06T06:33:07.123Z,81.80
2022-12-06T06:35:34.392Z,249.38
2022-12-06T06:38:03.454Z,223.48
2022-12-06T06:40:30.857Z,195.88
2022-12-06T06:42:58.201Z,259.25
2022-12-06T06:45:28.916Z,244.90
2022-12-06T06:47:56.204Z,193.70
2022-12-06T06:50:23.198Z,100.38
2022-12-06T06:52:50.142Z,142.13
2022-12-06T06:55:20.217Z,158.27
2022-12-06T06:57:47.689Z,124.43
2022-12-06T07:00:16.790Z,92.20
2022-12-06T07:02:43.802Z,98.75
2022-12-06T07:05:10.829Z,79.28
2022-12-06T07:07:37.865Z,55.03
2022-12-06T07:10:06.153Z,99.45
2022-12-06T07:12:34.499Z,71.50
2022-12-06T07:15:01.511Z,74.00
2022-12-06T07:17:28.419Z,62.95
2022-12-06T07:19:55.860Z,64.05
2022-12-06T07:22:22.802Z,43.58
2022-12-06T07:24:52.547Z,58.92
2022-12-06T07:27:19.627Z,52.85
2022-12-06T07:29:47.992Z,39.65
2022-12-06T07:32:14.930Z,53.95
2022-12-06T07:34:41.899Z,34.42
2022-12-06T07:37:08.899Z,35.75
2022-12-06T07:39:36.048Z,27.35
2022-12-06T07:42:21.373Z,28.80
2022-12-06T07:45:03.213Z,34.95
2022-12-06T07:47:32.973Z,26.23
2022-12-06T07:50:00.174Z,21.92
2022-12-06T07:52:31.303Z,19.20
2022-12-06T07:54:58.366Z,24.40
2022-12-06T07:57:25.420Z,21.88
2022-12-06T07:59:53.814Z,24.67
2022-12-06T08:02:23.971Z,19.75
2022-12-06T08:04:51.014Z,19.15
2022-12-06T08:07:18.511Z,19.55
2022-12-06T08:09:46.577Z,17.88
2022-12-06T08:12:13.805Z,20.00
2022-12-06T08:14:40.936Z,22.17
2022-12-06T08:17:09.412Z,20.27
2022-12-06T08:19:36.421Z,20.17
2022-12-06T08:22:03.532Z,19.45
2022-12-06T08:24:30.714Z,19.00
2022-12-06T08:26:59.337Z,21.02
2022-12-06T08:29:27.235Z,27.67
2022-12-06T08:31:54.469Z,19.83
2022-12-06T08:34:22.862Z,20.88
2022-12-06T08:36:49.846Z,19.58
2022-12-06T08:39:16.828Z,24.42
2022-12-06T08:41:55.543Z,23.52
2022-12-06T08:44:22.716Z,21.95
2022-12-06T08:46:49.805Z,22.27
2022-12-06T08:49:17.561Z,23.90
2022-12-06T08:51:47.176Z,26.77
2022-12-06T08:54:16.278Z,25.02
2022-12-06T08:56:43.336Z,25.05
2022-12-06T08:59:10.468Z,27.80
2022-12-06T09:01:38.579Z,28.08
2022-12-06T09:04:07.115Z,25.13
2022-12-06T09:06:34.357Z,23.83
2022-12-06T09:09:02.779Z,20.50
2022-12-06T09:11:29.708Z,23.77
2022-12-06T09:13:56.705Z,24.20
2022-12-06T09:16:24.625Z,24.33
2022-12-06T09:18:51.764Z,26.92
2022-12-06T09:21:20.753Z,29.30
2022-12-06T09:23:47.893Z,23.15
2022-12-06T09:26:16.578Z,24.90
2022-12-06T09:28:46.125Z,24.17
2022-12-06T09:31:13.103Z,24.23
2022-12-06T09:33:40.138Z,25.70
2022-12-06T09:36:13.625Z,21.80
2022-12-06T09:38:43.179Z,25.35
2022-12-06T09:41:23.601Z,32.10
2022-12-06T09:44:03.968Z,25.90
2022-12-06T09:46:45.146Z,24.58
2022-12-06T09:49:27.932Z,26.30
2022-12-06T09:52:18.264Z,25.77
2022-12-06T09:55:00.624Z,23.15
2022-12-06T09:57:34.810Z,19.20
2022-12-06T10:00:10.873Z,22.98
2022-12-06T10:03:00.915Z,21.30
2022-12-06T10:05:36.754Z,19.48
2022-12-06T10:08:16.845Z,19.73
2022-12-06T10:10:55.398Z,19.67
2022-12-06T10:13:39.329Z,19.40
2022-12-06T10:16:16.619Z,20.52
2022-12-06T10:19:04.571Z,16.65
2022-12-06T10:21:45.383Z,15.55
2022-12-06T10:24:24.102Z,14.40
2022-12-06T10:26:52.341Z,16.13
2022-12-06T10:29:29.198Z,15.80
2022-12-06T10:31:58.268Z,15.50
2022-12-06T10:34:45.724Z,15.68
2022-12-06T10:37:29.062Z,15.70
2022-12-06T10:40:02.613Z,15.70
2022-12-06T10:42:35.800Z,11.75
2022-12-06T10:45:35.008Z,9.65
2022-12-06T10:48:07.639Z,20.20
2022-12-06T10:50:39.344Z,12.77
2022-12-06T10:53:11.982Z,10.40
2022-12-06T10:55:44.322Z,14.35
2022-12-06T10:58:17.927Z,10.23
2022-12-06T11:00:52.794Z,8.40
2022-12-06T11:03:24.174Z,10.95
2022-12-06T11:05:55.012Z,8.70
2022-12-06T11:08:25.593Z,8.02
2022-12-06T11:10:54.900Z,8.85
2022-12-06T11:13:27.293Z,11.07
2022-12-06T11:16:00.932Z,11.20
2022-12-06T11:18:29.183Z,6.65
2022-12-06T11:21:02.024Z,9.82
2022-12-06T11:23:38.365Z,8.85
2022-12-06T11:26:15.140Z,10.80
2022-12-06T11:28:44.175Z,7.65
2022-12-06T11:31:25.570Z,9.50
2022-12-06T11:33:52.706Z,5.85
2022-12-06T11:36:21.581Z,5.88
2022-12-06T11:38:48.631Z,6.13
2022-12-06T11:41:22.566Z,6.63
2022-12-06T11:43:50.369Z,5.82
2022-12-06T11:46:18.970Z,6.93
2022-12-06T11:48:46.126Z,8.52
2022-12-06T11:51:18.271Z,8.23
2022-12-06T11:54:00.306Z,9.32
2022-12-06T11:56:29.270Z,7.05
2022-12-06T11:59:07.013Z,8.52
2022-12-06T12:01:41.170Z,9.30
2022-12-06T12:04:35.362Z,12.85
2022-12-06T12:07:06.094Z,12.07
2022-12-06T12:09:37.380Z,7.60
2022-12-06T12:12:06.513Z,7.10
2022-12-06T12:14:40.273Z,7.80
2022-12-06T12:17:18.617Z,10.15
2022-12-06T12:19:50.225Z,7.35
2022-12-06T12:22:28.057Z,10.30
2022-12-06T12:27:47.993Z,8.80
2022-12-06T12:30:20.781Z,6.28
2022-12-06T12:32:50.542Z,8.27
2022-12-06T12:35:26.045Z,6.68
2022-12-06T12:37:57.453Z,9.57
2022-12-06T12:40:26.552Z,7.35
2022-12-06T12:42:59.771Z,6.85
2022-12-06T12:45:27.797Z,6.82
2022-12-06T12:48:01.501Z,12.65
2022-12-06T12:50:30.265Z,8.02
2022-12-06T12:52:57.585Z,11.40
2022-12-06T12:55:27.420Z,9.63
2022-12-06T12:57:56.411Z,7.35
2022-12-06T13:00:26.358Z,9.68
2022-12-06T13:02:57.322Z,8.38
2022-12-06T13:05:34.679Z,10.43
2022-12-06T13:08:06.682Z,13.48
2022-12-06T13:10:36.339Z,12.50
2022-12-06T13:13:06.705Z,11.38
2022-12-06T13:15:36.904Z,17.48
2022-12-06T13:18:11.402Z,8.75
2022-12-06T13:20:41.319Z,11.93
2022-12-06T13:23:12.341Z,14.57
2022-12-06T13:25:39.674Z,22.50
2022-12-06T13:28:14.694Z,19.13
2022-12-06T13:30:42.615Z,13.65
2022-12-06T13:33:21.203Z,13.82
2022-12-06T13:35:55.669Z,11.88
2022-12-06T13:38:29.070Z,11.48
2022-12-06T13:40:56.907Z,14.73
2022-12-06T13:43:54.154Z,9.32
2022-12-06T13:46:32.582Z,10.93
2022-12-06T13:49:02.392Z,10.60
2022-12-06T13:51:44.929Z,11.20
2022-12-06T13:54:36.115Z,12.88
2022-12-06T13:57:23.892Z,12.35
2022-12-06T13:59:51.101Z,10.35
2022-12-06T14:02:51.480Z,12.32
2022-12-06T14:06:12.172Z,11.40
2022-12-06T14:08:44.147Z,14.02
2022-12-06T14:11:15.912Z,17.00
2022-12-06T14:13:45.197Z,16.25
2022-12-06T14:16:19.262Z,18.58
2022-12-06T14:18:46.558Z,13.93
2022-12-06T14:21:23.427Z,15.60
2022-12-06T14:23:52.006Z,121.45
2022-12-06T14:26:23.096Z,85.15
2022-12-06T14:28:51.672Z,15.20
2022-12-06T14:31:22.837Z,11.98
2022-12-06T14:33:50.421Z,12.65
2022-12-06T14:36:21.270Z,31.08
2022-12-06T14:38:57.223Z,18.08
2022-12-06T14:41:49.446Z,13.57
2022-12-06T14:44:18.390Z,15.48
2022-12-06T14:46:47.680Z,10.60
2022-12-06T14:49:36.945Z,13.43
2022-12-06T14:52:20.801Z,15.65
2022-12-06T14:54:50.197Z,24.63
2022-12-06T14:57:22.542Z,17.70
2022-12-06T15:00:18.419Z,24.75
2022-12-06T15:03:21.502Z,44.20
2022-12-06T15:05:52.176Z,51.35
2022-12-06T15:08:33.878Z,31.67
2022-12-06T15:11:04.019Z,20.98
2022-12-06T15:13:31.220Z,36.10
2022-12-06T15:16:05.618Z,34.25
2022-12-06T15:18:35.145Z,27.15
2022-12-06T15:21:02.096Z,87.53
2022-12-06T15:23:37.231Z,47.42
2022-12-06T15:26:07.474Z,35.92
2022-12-06T15:28:35.859Z,110.82
2022-12-06T15:31:03.292Z,75.65
2022-12-06T15:33:30.739Z,298.48
2022-12-06T15:35:59.099Z,36.45
2022-12-06T15:38:26.228Z,12.40
2022-12-06T15:40:55.687Z,14.45
2022-12-06T15:43:28.913Z,11.52
2022-12-06T15:45:56.992Z,12.82
2022-12-06T15:48:24.156Z,10.02
2022-12-06T15:50:51.178Z,15.15
2022-12-06T15:53:22.667Z,11.68
2022-12-06T15:55:50.153Z,11.00
2022-12-06T15:58:17.377Z,9.55
2022-12-06T16:00:48.742Z,13.50
2022-12-06T16:03:15.805Z,313.13
2022-12-06T16:05:42.875Z,25.55
2022-12-06T16:08:12.645Z,14.50
2022-12-06T16:11:10.761Z,12.82
2022-12-06T16:13:31.336Z,13.27
2022-12-06T16:15:59.973Z,11.10
2022-12-06T16:18:27.023Z,11.63
2022-12-06T16:20:54.114Z,16.52
2022-12-06T16:26:29.934Z,22.27
2022-12-06T16:28:57.296Z,23.15
2022-12-06T16:31:26.316Z,25.05
2022-12-06T16:33:53.446Z,26.52
2022-12-06T16:36:22.418Z,27.00
2022-12-06T16:38:54.343Z,38.83
2022-12-06T16:41:24.185Z,35.72
2022-12-06T16:43:51.129Z,34.55
2022-12-06T16:46:28.836Z,28.17
2022-12-06T16:49:15.722Z,19.23
2022-12-06T16:51:45.481Z,16.00
2022-12-06T16:54:13.057Z,20.98
2022-12-06T16:56:41.751Z,14.45
2022-12-06T16:59:13.890Z,17.02
2022-12-06T17:01:49.796Z,15.82
2022-12-06T17:04:17.526Z,18.08
2022-12-06T17:06:45.142Z,17.77
2022-12-06T17:09:13.191Z,20.60
2022-12-06T17:11:59.380Z,26.85
2022-12-06T17:14:27.249Z,27.02
2022-12-06T17:16:56.636Z,29.55
2022-12-06T17:19:28.749Z,30.10
2022-12-06T17:21:55.956Z,28.88
2022-12-06T17:24:25.313Z,35.15
2022-12-06T17:26:54.153Z,38.40
2022-12-06T17:29:21.829Z,45.85
2022-12-06T17:31:49.488Z,42.95
2022-12-06T17:34:19.017Z,45.78
2022-12-06T17:36:46.357Z,39.65
2022-12-06T17:39:15.494Z,37.10
2022-12-06T17:42:01.016Z,36.35
2022-12-06T17:44:28.292Z,33.53
2022-12-06T17:46:55.947Z,34.70
2022-12-06T17:49:25.772Z,32.60
2022-12-06T17:51:52.861Z,32.55
2022-12-06T17:54:20.809Z,38.58
2022-12-06T17:56:49.097Z,121.25
2022-12-06T17:59:19.585Z,170.98
2022-12-06T18:04:35.693Z,58.15
2022-12-06T18:07:02.778Z,41.00
2022-12-06T18:09:29.827Z,34.42
2022-12-06T18:11:57.589Z,30.25
2022-12-06T18:14:24.625Z,29.27
2022-12-06T18:16:51.662Z,28.13
2022-12-06T18:19:20.772Z,23.92
2022-12-06T18:21:49.721Z,21.77
2022-12-06T18:24:22.506Z,21.10
2022-12-06T18:26:50.340Z,23.13
2022-12-06T18:29:19.768Z,22.88
2022-12-06T18:31:47.412Z,34.53
2022-12-06T18:34:14.671Z,112.65
2022-12-06T18:36:42.140Z,130.05
2022-12-06T18:39:15.298Z,239.30
2022-12-06T18:41:42.983Z,183.30
2022-12-06T18:44:11.234Z,142.75
2022-12-06T18:46:39.452Z,182.20
2022-12-06T18:49:07.151Z,71.78
2022-12-06T18:51:35.651Z,204.90
2022-12-06T18:54:04.991Z,257.95
2022-12-06T18:56:34.375Z,305.10
2022-12-06T18:59:02.812Z,262.70
2022-12-06T19:01:32.187Z,263.60
2022-12-06T19:04:00.967Z,306.48
2022-12-06T19:06:30.317Z,310.17
2022-12-06T19:09:00.295Z,252.60
2022-12-06T19:11:27.264Z,153.93
2022-12-06T19:13:56.705Z,267.52
2022-12-06T19:16:28.780Z,175.48
2022-12-06T19:18:58.252Z,196.57
2022-12-06T19:21:26.000Z,179.05
2022-12-06T19:23:53.722Z,180.75
2022-12-06T19:26:21.464Z,124.03
2022-12-06T19:28:48.699Z,188.68
2022-12-06T19:31:17.667Z,202.70
2022-12-06T19:33:46.500Z,162.77
2022-12-06T19:36:16.531Z,169.73
2022-12-06T19:38:44.096Z,130.05
2022-12-06T19:41:13.912Z,75.28
2022-12-06T19:43:59.205Z,134.73
2022-12-06T19:46:29.614Z,93.38
2022-12-06T19:48:58.050Z,61.40
2022-12-06T19:51:28.824Z,67.63
2022-12-06T19:53:57.914Z,59.08
2022-12-06T19:56:27.826Z,59.05
2022-12-06T19:58:56.360Z,43.17
2022-12-06T20:01:30.014Z,29.63
2022-12-06T20:03:58.735Z,20.65
2022-12-06T20:06:27.396Z,33.25
2022-12-06T20:08:58.100Z,28.77
2022-12-06T20:11:44.842Z,29.15
2022-12-06T20:14:14.441Z,32.88
2022-12-06T20:16:43.194Z,74.55
2022-12-06T20:19:16.517Z,81.20
2022-12-06T20:21:44.757Z,39.47
2022-12-06T20:24:13.272Z,43.47
2022-12-06T20:26:40.422Z,45.95
2022-12-06T20:29:08.030Z,68.22
2022-12-06T20:31:35.760Z,93.75
2022-12-06T20:34:07.869Z,115.00
2022-12-06T20:36:38.681Z,59.38
2022-12-06T20:39:05.749Z,117.57
2022-12-06T20:41:33.228Z,108.63
2022-12-06T20:44:02.212Z,112.10
2022-12-06T20:46:31.051Z,137.07
2022-12-06T20:49:05.749Z,75.45
2022-12-06T20:51:35.380Z,91.47
2022-12-06T20:54:05.478Z,93.90
2022-12-06T20:56:34.260Z,93.65
2022-12-06T20:59:02.454Z,76.55
2022-12-06T21:01:31.538Z,73.30
2022-12-06T21:03:58.708Z,34.85
2022-12-06T21:06:26.185Z,103.60
2022-12-06T21:08:53.851Z,86.10
2022-12-06T21:11:24.421Z,67.13
2022-12-06T21:13:53.476Z,74.78
2022-12-06T21:16:22.788Z,159.10
2022-12-06T21:18:55.042Z,84.97
2022-12-06T21:21:23.944Z,110.18
2022-12-06T21:23:50.929Z,163.30
2022-12-06T21:26:18.120Z,98.68
2022-12-06T21:28:49.184Z,69.47
2022-12-06T21:31:16.152Z,71.90
2022-12-06T21:33:43.137Z,53.60
2022-12-06T21:36:11.106Z,72.57
2022-12-06T21:38:38.584Z,68.60
2022-12-06T21:41:07.225Z,48.05
2022-12-06T21:43:35.158Z,41.58
2022-12-06T21:46:10.153Z,37.40
2022-12-06T21:48:37.159Z,54.22
2022-12-06T21:51:05.765Z,38.45
2022-12-06T21:53:33.363Z,19.27
2022-12-06T21:56:05.765Z,20.50
2022-12-06T21:58:32.735Z,12.93
2022-12-06T22:01:04.679Z,15.27
2022-12-06T22:03:33.197Z,14.10
2022-12-06T22:06:04.749Z,39.08
2022-12-06T22:08:31.858Z,22.73
2022-12-06T22:10:58.880Z,22.10
2022-12-06T22:13:25.895Z,28.65
2022-12-06T22:15:52.987Z,38.03
2022-12-06T22:18:20.113Z,22.88
2022-12-06T22:20:58.289Z,35.92
2022-12-06T22:23:25.399Z,18.52
2022-12-06T22:25:52.364Z,17.58
2022-12-06T22:28:19.338Z,27.23
2022-12-06T22:30:46.284Z,36.38
2022-12-06T22:33:13.250Z,24.67
2022-12-06T22:35:40.458Z,51.28
2022-12-06T22:38:08.841Z,31.70
2022-12-06T22:40:35.882Z,40.47
2022-12-06T22:43:02.836Z,30.55
2022-12-06T22:45:29.802Z,76.03
2022-12-06T22:47:56.786Z,24.05
2022-12-06T22:50:23.788Z,37.47
2022-12-06T22:52:50.700Z,45.15
2022-12-06T22:55:19.025Z,56.17
2022-12-06T22:57:45.946Z,50.67
2022-12-06T23:00:13.765Z,87.30
2022-12-06T23:02:40.695Z,72.20
2022-12-06T23:05:08.213Z,51.17
2022-12-06T23:07:35.899Z,82.00
2022-12-06T23:10:03.675Z,66.45
2022-12-06T23:12:32.317Z,64.75
2022-12-06T23:14:59.281Z,46.30
2022-12-06T23:17:26.180Z,53.92
2022-12-06T23:19:53.093Z,52.03
2022-12-06T23:22:22.221Z,97.82
2022-12-06T23:24:49.491Z,45.95
2022-12-06T23:27:16.641Z,66.82
2022-12-06T23:29:44.953Z,41.92
2022-12-06T23:32:12.287Z,52.65
2022-12-06T23:34:39.497Z,73.78
2022-12-06T23:37:06.465Z,63.03
2022-12-06T23:39:33.422Z,45.78
2022-12-06T23:42:00.304Z,66.28
2022-12-06T23:44:27.257Z,57.78
2022-12-06T23:46:55.860Z,65.70
2022-12-06T23:49:22.944Z,64.07
2022-12-06T23:51:50.168Z,70.28
2022-12-06T23:54:18.777Z,49.92
2022-12-06T23:56:46.296Z,81.85
2022-12-06T23:59:14.824Z,71.57
